Portada
METAR-TAF:

METAR-TAF

Aeroports :

Casals, França

latitud: 44-32N, longitud: 001-08W, altitud: 25 m

Observació

L'informe es va fer fa 24 minuts, a les 04:30 UTC
Vent 4 kt del Nord
Temperatura 3°C
Humitat 100%
Pressió 1032 hPa
Visibilitat 10 km o més
sense núvols per sota de 1500 mi sense presència de cumulonimbus.

METAR: LFBC 200430Z AUTO 36004KT CAVOK 03/03 Q1032 TEMPO 0300 FG

Hora: 05:54 (04:54 UTC)

Pronòstic

L'informe es va fer fa 8 hores i 54 minuts, a les 20:00 UTC
Pronòstic vàlid del 19 a les 21 UTC al 20 a les 21 UTC
Vent 3 kt del Nord
Visibilitat 10 km o més
sense núvols per sota de 1500 mi sense presència de cumulonimbus.
Temporalment
l' 20 a les 02 UTC al 20 a les 08 UTC
Visibilitat: 0500 m
boira en bancs
Probabilitat 40% :
Temporalment
l' 20 a les 03 UTC al 20 a les 07 UTC
Visibilitat: 0300 m
boira

TAF: LFBC 192000Z 1921/2021 36003KT CAVOK TEMPO 2002/2008 0500 BCFG PROB40 TEMPO 2003/2007 0300 FG

Observacions i pronòstics meteorològics de més de 4000 aeroports (METAR i TAF).

Les estacions disponibles són els punts grocs i vermells al mapa.

Posi el ratolí al punt desitjat per veure el nom de l'estació.

Feu clic per veure les observacions i els pronòstics meteorològics.

Per canviar el mapa: feu clic els botons verds amb una creu de color negre per apropar; al botó verd amb un guió per allunyar la imatge; o en les fletxes verdes per a mapes adjacents.


METAR-TAF: